Have a Safe July 4th! 

Flight Track Log - Related Links

Times and Time Zones

All times are in EDT time to prevent confusion due to time zone crossing. See the QXE2086 flight status page for this flight to view local times or setup timezone preferences in your user account.

Time Position Orientation Groundspeed Altitude Reporting Facility
EDT Latitude Longitude Course Direction KTS MPH feet Rate Location/Type
Fri 10:36:00 PM 47.2489 -121.6741 106° East  Level Estimated
Fri 10:37:00 PM 47.2150 -121.5683 109° East  Level Estimated
Fri 10:38:00 PM 47.1955 -121.4550 104° East  Level FlightAware Approximate
Fri 10:39:00 PM 47.1759 -121.3417 104° East  Level FlightAware Approximate
Fri 10:40:00 PM 47.1561 -121.2286 104° East  Level FlightAware Approximate
Fri 10:41:00 PM 47.1204 -121.1243 109° East  Level Estimated
Fri 10:42:00 PM 47.0998 -121.0116 105° East  Level FlightAware Approximate
Fri 10:43:00 PM 47.0791 -120.8990 105° East  Level FlightAware Approximate
Fri 10:44:00 PM 47.0583 -120.7865 105° East  Level FlightAware Approximate
Fri 10:45:00 PM 47.0374 -120.6740 105° East  Level FlightAware Approximate
Fri 10:46:00 PM 47.0016 -120.5796 138° Southeast  Level Estimated
Fri 10:47:00 PM 46.9718 -120.4809 114° Southeast  Level FlightAware Approximate
Fri 10:48:00 PM 46.9420 -120.3822 114° Southeast  Level FlightAware Approximate
Fri 10:49:00 PM 46.9055 -120.2886 139° Southeast  Level Estimated
Fri 10:50:00 PM 46.8686 -120.1953 120° Southeast  Level FlightAware Approximate
Fri 10:51:00 PM 46.8317 -120.1022 120° Southeast  Level FlightAware Approximate
Fri 10:52:00 PM 46.7950 -120.0089 143° Southeast  Level Estimated
Fri 10:53:00 PM 46.7548 -119.9073 121° Southeast  Level Estimated
Fri 10:54:00 PM 46.7761 -119.7942 75° East  Level FlightAware Approximate
Fri 10:55:00 PM 46.7320 -119.6942 126° Southeast  Level Estimated
Fri 10:56:00 PM 46.6956 -119.5879 116° Southeast  Level FlightAware Approximate
Fri 10:57:00 PM 46.6591 -119.4817 117° Southeast  Level FlightAware Approximate
Fri 10:58:00 PM 46.6226 -119.3757 117° Southeast  Level FlightAware Approximate
Fri 10:59:00 PM 46.5859 -119.2698 117° Southeast  Level FlightAware Approximate
Fri 11:00:00 PM 46.5480 -119.1647 145° Southeast  Level FlightAware Approximate
Fri 11:01:00 PM 46.4936 -119.0771 128° Southeast  Level FlightAware Approximate
Fri 11:02:00 PM 46.4428 -118.9840 128° Southeast  Level FlightAware Approximate
Fri 11:03:00 PM 46.3943 -118.8884 126° Southeast  Level FlightAware Approximate
Fri 11:04:00 PM 46.3464 -118.7924 126° Southeast  Level FlightAware Approximate
Fri 11:05:00 PM 46.2984 -118.6965 123° Southeast  Level FlightAware Approximate
Fri 11:06:00 PM 46.2542 -118.5969 123° Southeast  Level FlightAware Approximate
Fri 11:07:00 PM 46.1984 -118.5135 126° Southeast  Level FlightAware Approximate
Fri 11:08:00 PM 46.1505 -118.4177 126° Southeast  Level FlightAware Approximate
Fri 11:09:00 PM 46.1027 -118.3220 126° Southeast  Level FlightAware Approximate
Fri 11:10:00 PM 46.0948 -118.2890 126° Southeast  Level Estimated
Fri 11:11:00 PM 46.0948 -118.2890 126° Southeast  Level Estimated
Fri 11:12:00 PM 46.0948 -118.2890 126° Southeast  Level Estimated
Fri 11:13:00 PM 46.0948 -118.2890 126° Southeast  Level Estimated

Login

Don't have an account? Register now (free) for customized features, flight alerts, and more!